sensor_id;sensor_type;location;lat;lon;timestamp;pressure;altitude;pressure_sealevel;temperature
29701;BMP280;57917;51.380;-0.176;2024-01-10T00:02:21;102562.56;;;1.08
29701;BMP280;57917;51.380;-0.176;2024-01-10T00:08:08;102557.38;;;1.16
29701;BMP280;57917;51.380;-0.176;2024-01-10T00:13:55;102550.94;;;0.86
29701;BMP280;57917;51.380;-0.176;2024-01-10T00:19:53;102557.94;;;0.85
29701;BMP280;57917;51.380;-0.176;2024-01-10T00:25:40;102559.59;;;0.95
29701;BMP280;57917;51.380;-0.176;2024-01-10T00:31:31;102552.72;;;0.85
29701;BMP280;57917;51.380;-0.176;2024-01-10T00:37:18;102553.88;;;0.91
29701;BMP280;57917;51.380;-0.176;2024-01-10T00:43:05;102556.56;;;1.23
29701;BMP280;57917;51.380;-0.176;2024-01-10T00:48:52;102548.06;;;1.05
29701;BMP280;57917;51.380;-0.176;2024-01-10T00:54:38;102546.44;;;1.12
29701;BMP280;57917;51.380;-0.176;2024-01-10T01:00:25;102544.47;;;1.06
29701;BMP280;57917;51.380;-0.176;2024-01-10T01:06:13;102547.09;;;1.14
29701;BMP280;57917;51.380;-0.176;2024-01-10T01:12:03;102548.03;;;0.89
29701;BMP280;57917;51.380;-0.176;2024-01-10T01:17:50;102546.72;;;0.85
29701;BMP280;57917;51.380;-0.176;2024-01-10T01:23:36;102540.84;;;0.83
29701;BMP280;57917;51.380;-0.176;2024-01-10T01:29:28;102536.75;;;0.80
29701;BMP280;57917;51.380;-0.176;2024-01-10T01:35:15;102538.88;;;0.77
29701;BMP280;57917;51.380;-0.176;2024-01-10T01:41:08;102545.06;;;0.84
29701;BMP280;57917;51.380;-0.176;2024-01-10T01:46:55;102542.03;;;0.63
29701;BMP280;57917;51.380;-0.176;2024-01-10T01:52:43;102540.81;;;0.75
29701;BMP280;57917;51.380;-0.176;2024-01-10T01:58:31;102535.59;;;0.75
29701;BMP280;57917;51.380;-0.176;2024-01-10T02:04:18;102539.19;;;0.82
29701;BMP280;57917;51.380;-0.176;2024-01-10T02:10:06;102543.13;;;0.94
29701;BMP280;57917;51.380;-0.176;2024-01-10T02:15:54;102538.25;;;0.91
29701;BMP280;57917;51.380;-0.176;2024-01-10T02:21:41;102536.94;;;0.95
29701;BMP280;57917;51.380;-0.176;2024-01-10T02:27:29;102528.63;;;0.92
29701;BMP280;57917;51.380;-0.176;2024-01-10T02:33:16;102534.75;;;0.66
29701;BMP280;57917;51.380;-0.176;2024-01-10T02:39:03;102531.38;;;0.82
29701;BMP280;57917;51.380;-0.176;2024-01-10T02:44:50;102518.69;;;0.87
29701;BMP280;57917;51.380;-0.176;2024-01-10T02:50:37;102514.41;;;0.78
29701;BMP280;57917;51.380;-0.176;2024-01-10T02:56:25;102504.09;;;0.60
29701;BMP280;57917;51.380;-0.176;2024-01-10T03:02:12;102510.44;;;0.58
29701;BMP280;57917;51.380;-0.176;2024-01-10T03:07:59;102510.31;;;0.75
29701;BMP280;57917;51.380;-0.176;2024-01-10T03:13:53;102499.38;;;0.64
29701;BMP280;57917;51.380;-0.176;2024-01-10T03:19:47;102491.19;;;0.51
29701;BMP280;57917;51.380;-0.176;2024-01-10T03:25:33;102494.44;;;0.53
29701;BMP280;57917;51.380;-0.176;2024-01-10T03:31:20;102486.00;;;0.59
29701;BMP280;57917;51.380;-0.176;2024-01-10T03:37:07;102472.56;;;0.38
29701;BMP280;57917;51.380;-0.176;2024-01-10T03:42:54;102481.47;;;0.19
29701;BMP280;57917;51.380;-0.176;2024-01-10T03:48:41;102487.91;;;0.07
29701;BMP280;57917;51.380;-0.176;2024-01-10T03:55:14;102487.31;;;0.13
29701;BMP280;57917;51.380;-0.176;2024-01-10T04:01:06;102489.31;;;0.27
29701;BMP280;57917;51.380;-0.176;2024-01-10T04:06:53;102475.03;;;0.31
29701;BMP280;57917;51.380;-0.176;2024-01-10T04:12:40;102494.59;;;0.43
29701;BMP280;57917;51.380;-0.176;2024-01-10T04:18:27;102485.31;;;0.49
29701;BMP280;57917;51.380;-0.176;2024-01-10T04:24:14;102473.84;;;0.34
29701;BMP280;57917;51.380;-0.176;2024-01-10T04:30:01;102492.84;;;0.52
29701;BMP280;57917;51.380;-0.176;2024-01-10T04:35:50;102480.13;;;0.57
29701;BMP280;57917;51.380;-0.176;2024-01-10T04:41:37;102483.72;;;0.56
29701;BMP280;57917;51.380;-0.176;2024-01-10T04:47:24;102483.16;;;0.36
29701;BMP280;57917;51.380;-0.176;2024-01-10T04:53:11;102480.84;;;0.25
29701;BMP280;57917;51.380;-0.176;2024-01-10T04:58:58;102488.81;;;0.24
29701;BMP280;57917;51.380;-0.176;2024-01-10T05:04:45;102492.19;;;0.58
29701;BMP280;57917;51.380;-0.176;2024-01-10T05:10:32;102479.28;;;0.48
29701;BMP280;57917;51.380;-0.176;2024-01-10T05:16:19;102491.63;;;0.38
29701;BMP280;57917;51.380;-0.176;2024-01-10T05:22:06;102479.16;;;0.50
29701;BMP280;57917;51.380;-0.176;2024-01-10T05:27:53;102473.94;;;0.50
29701;BMP280;57917;51.380;-0.176;2024-01-10T05:33:40;102471.78;;;0.45
29701;BMP280;57917;51.380;-0.176;2024-01-10T05:46:20;102466.06;;;0.42
29701;BMP280;57917;51.380;-0.176;2024-01-10T05:52:07;102456.59;;;0.33
29701;BMP280;57917;51.380;-0.176;2024-01-10T05:57:54;102463.13;;;0.37
29701;BMP280;57917;51.380;-0.176;2024-01-10T06:03:41;102457.94;;;0.45
29701;BMP280;57917;51.380;-0.176;2024-01-10T06:09:28;102461.28;;;0.71
29701;BMP280;57917;51.380;-0.176;2024-01-10T06:15:18;102463.06;;;0.62
29701;BMP280;57917;51.380;-0.176;2024-01-10T06:21:07;102458.97;;;0.52
29701;BMP280;57917;51.380;-0.176;2024-01-10T06:26:57;102465.50;;;0.64
29701;BMP280;57917;51.380;-0.176;2024-01-10T06:32:43;102471.69;;;0.71
29701;BMP280;57917;51.380;-0.176;2024-01-10T06:38:32;102459.41;;;0.39
29701;BMP280;57917;51.380;-0.176;2024-01-10T06:44:19;102457.97;;;0.53
29701;BMP280;57917;51.380;-0.176;2024-01-10T06:50:06;102456.34;;;0.52
29701;BMP280;57917;51.380;-0.176;2024-01-10T06:55:55;102449.00;;;0.47
29701;BMP280;57917;51.380;-0.176;2024-01-10T07:01:43;102461.88;;;0.49
29701;BMP280;57917;51.380;-0.176;2024-01-10T07:07:30;102458.00;;;0.61
29701;BMP280;57917;51.380;-0.176;2024-01-10T07:13:17;102460.56;;;0.53
29701;BMP280;57917;51.380;-0.176;2024-01-10T07:19:04;102459.28;;;0.57
29701;BMP280;57917;51.380;-0.176;2024-01-10T07:24:51;102465.94;;;0.51
29701;BMP280;57917;51.380;-0.176;2024-01-10T07:30:38;102466.19;;;0.90
29701;BMP280;57917;51.380;-0.176;2024-01-10T07:36:25;102470.91;;;0.70
29701;BMP280;57917;51.380;-0.176;2024-01-10T07:42:16;102473.38;;;0.88
29701;BMP280;57917;51.380;-0.176;2024-01-10T07:48:05;102470.75;;;0.80
29701;BMP280;57917;51.380;-0.176;2024-01-10T07:53:52;102477.44;;;0.74
29701;BMP280;57917;51.380;-0.176;2024-01-10T07:59:39;102485.72;;;0.70
29701;BMP280;57917;51.380;-0.176;2024-01-10T08:05:31;102477.63;;;0.89
29701;BMP280;57917;51.380;-0.176;2024-01-10T08:20:14;102484.47;;;0.98
29701;BMP280;57917;51.380;-0.176;2024-01-10T08:26:06;102479.94;;;1.08
29701;BMP280;57917;51.380;-0.176;2024-01-10T08:31:55;102485.47;;;1.05
29701;BMP280;57917;51.380;-0.176;2024-01-10T08:37:42;102495.91;;;1.21
29701;BMP280;57917;51.380;-0.176;2024-01-10T08:43:33;102500.47;;;1.43
29701;BMP280;57917;51.380;-0.176;2024-01-10T08:49:20;102501.28;;;1.44
29701;BMP280;57917;51.380;-0.176;2024-01-10T08:55:08;102499.81;;;1.57
29701;BMP280;57917;51.380;-0.176;2024-01-10T09:00:59;102493.28;;;1.61
29701;BMP280;57917;51.380;-0.176;2024-01-10T09:06:46;102483.78;;;1.85
29701;BMP280;57917;51.380;-0.176;2024-01-10T09:12:34;102480.97;;;1.86
29701;BMP280;57917;51.380;-0.176;2024-01-10T09:18:24;102482.34;;;2.13
29701;BMP280;57917;51.380;-0.176;2024-01-10T09:24:13;102474.19;;;2.16
29701;BMP280;57917;51.380;-0.176;2024-01-10T09:36:34;102486.44;;;2.54
29701;BMP280;57917;51.380;-0.176;2024-01-10T09:42:39;102503.97;;;2.68
29701;BMP280;57917;51.380;-0.176;2024-01-10T09:48:44;102481.69;;;2.80
29701;BMP280;57917;51.380;-0.176;2024-01-10T09:54:57;102485.44;;;2.78
29701;BMP280;57917;51.380;-0.176;2024-01-10T10:00:45;102463.69;;;2.85
29701;BMP280;57917;51.380;-0.176;2024-01-10T10:06:33;102488.28;;;3.13
29701;BMP280;57917;51.380;-0.176;2024-01-10T10:12:21;102483.75;;;3.07
29701;BMP280;57917;51.380;-0.176;2024-01-10T10:25:01;102498.84;;;3.42
29701;BMP280;57917;51.380;-0.176;2024-01-10T10:30:51;102492.63;;;3.43
29701;BMP280;57917;51.380;-0.176;2024-01-10T10:36:38;102487.84;;;3.62
29701;BMP280;57917;51.380;-0.176;2024-01-10T10:42:28;102491.91;;;3.79
29701;BMP280;57917;51.380;-0.176;2024-01-10T10:48:19;102491.09;;;3.93
29701;BMP280;57917;51.380;-0.176;2024-01-10T10:54:11;102497.16;;;3.79
29701;BMP280;57917;51.380;-0.176;2024-01-10T11:00:01;102485.50;;;3.96
29701;BMP280;57917;51.380;-0.176;2024-01-10T11:05:49;102477.06;;;4.00
29701;BMP280;57917;51.380;-0.176;2024-01-10T11:24:01;102463.41;;;4.19
29701;BMP280;57917;51.380;-0.176;2024-01-10T11:29:56;102459.38;;;4.38
29701;BMP280;57917;51.380;-0.176;2024-01-10T11:36:12;102476.22;;;4.65
29701;BMP280;57917;51.380;-0.176;2024-01-10T11:42:03;102454.94;;;4.38
29701;BMP280;57917;51.380;-0.176;2024-01-10T11:47:57;102462.91;;;4.87
29701;BMP280;57917;51.380;-0.176;2024-01-10T11:53:49;102452.88;;;4.97
29701;BMP280;57917;51.380;-0.176;2024-01-10T11:59:41;102445.28;;;4.81
29701;BMP280;57917;51.380;-0.176;2024-01-10T12:05:32;102419.88;;;4.88
29701;BMP280;57917;51.380;-0.176;2024-01-10T12:11:43;102421.03;;;4.79
29701;BMP280;57917;51.380;-0.176;2024-01-10T12:17:36;102418.38;;;5.07
29701;BMP280;57917;51.380;-0.176;2024-01-10T12:23:23;102414.16;;;5.06
29701;BMP280;57917;51.380;-0.176;2024-01-10T12:29:28;102408.31;;;5.04
29701;BMP280;57917;51.380;-0.176;2024-01-10T12:35:19;102407.13;;;5.13
29701;BMP280;57917;51.380;-0.176;2024-01-10T12:47:35;102390.81;;;5.17
29701;BMP280;57917;51.380;-0.176;2024-01-10T12:53:23;102385.28;;;5.06
29701;BMP280;57917;51.380;-0.176;2024-01-10T12:59:13;102379.91;;;4.86
29701;BMP280;57917;51.380;-0.176;2024-01-10T13:05:11;102386.25;;;4.98
29701;BMP280;57917;51.380;-0.176;2024-01-10T13:11:01;102371.72;;;4.96
29701;BMP280;57917;51.380;-0.176;2024-01-10T13:16:54;102348.44;;;4.93
29701;BMP280;57917;51.380;-0.176;2024-01-10T13:22:46;102361.00;;;4.97
29701;BMP280;57917;51.380;-0.176;2024-01-10T13:28:33;102369.50;;;4.99
29701;BMP280;57917;51.380;-0.176;2024-01-10T13:34:20;102365.50;;;5.03
29701;BMP280;57917;51.380;-0.176;2024-01-10T13:40:09;102356.19;;;5.01
29701;BMP280;57917;51.380;-0.176;2024-01-10T13:45:59;102353.78;;;5.06
29701;BMP280;57917;51.380;-0.176;2024-01-10T13:51:51;102338.56;;;4.95
29701;BMP280;57917;51.380;-0.176;2024-01-10T13:57:41;102355.38;;;5.00
29701;BMP280;57917;51.380;-0.176;2024-01-10T14:03:28;102342.22;;;4.94
29701;BMP280;57917;51.380;-0.176;2024-01-10T14:09:19;102344.94;;;5.13
29701;BMP280;57917;51.380;-0.176;2024-01-10T14:15:10;102351.41;;;5.04
29701;BMP280;57917;51.380;-0.176;2024-01-10T14:20:57;102356.69;;;5.17
29701;BMP280;57917;51.380;-0.176;2024-01-10T14:26:45;102349.13;;;5.01
29701;BMP280;57917;51.380;-0.176;2024-01-10T14:32:32;102355.38;;;5.07
29701;BMP280;57917;51.380;-0.176;2024-01-10T14:38:20;102350.13;;;5.00
29701;BMP280;57917;51.380;-0.176;2024-01-10T14:44:10;102355.34;;;4.94
29701;BMP280;57917;51.380;-0.176;2024-01-10T14:50:09;102345.63;;;4.88
29701;BMP280;57917;51.380;-0.176;2024-01-10T14:55:56;102349.59;;;4.84
29701;BMP280;57917;51.380;-0.176;2024-01-10T15:01:46;102353.19;;;4.76
29701;BMP280;57917;51.380;-0.176;2024-01-10T15:07:33;102360.44;;;4.74
29701;BMP280;57917;51.380;-0.176;2024-01-10T15:13:21;102340.22;;;4.68
29701;BMP280;57917;51.380;-0.176;2024-01-10T15:19:18;102361.63;;;4.72
29701;BMP280;57917;51.380;-0.176;2024-01-10T15:25:12;102352.41;;;4.48
29701;BMP280;57917;51.380;-0.176;2024-01-10T15:30:59;102359.03;;;4.51
29701;BMP280;57917;51.380;-0.176;2024-01-10T15:36:47;102372.34;;;4.49
29701;BMP280;57917;51.380;-0.176;2024-01-10T15:42:42;102371.22;;;4.37
29701;BMP280;57917;51.380;-0.176;2024-01-10T15:48:34;102377.03;;;4.32
29701;BMP280;57917;51.380;-0.176;2024-01-10T15:54:24;102377.97;;;4.25
29701;BMP280;57917;51.380;-0.176;2024-01-10T16:00:43;102369.34;;;4.10
29701;BMP280;57917;51.380;-0.176;2024-01-10T16:06:36;102378.22;;;3.94
29701;BMP280;57917;51.380;-0.176;2024-01-10T16:12:27;102384.56;;;4.00
29701;BMP280;57917;51.380;-0.176;2024-01-10T16:18:14;102368.34;;;3.90
29701;BMP280;57917;51.380;-0.176;2024-01-10T16:24:10;102380.81;;;3.88
29701;BMP280;57917;51.380;-0.176;2024-01-10T16:36:12;102374.31;;;3.69
29701;BMP280;57917;51.380;-0.176;2024-01-10T16:42:02;102375.88;;;3.64
29701;BMP280;57917;51.380;-0.176;2024-01-10T16:47:55;102385.72;;;3.62
29701;BMP280;57917;51.380;-0.176;2024-01-10T16:53:52;102382.47;;;3.45
29701;BMP280;57917;51.380;-0.176;2024-01-10T16:59:40;102386.72;;;3.31
29701;BMP280;57917;51.380;-0.176;2024-01-10T17:05:29;102389.97;;;3.33
29701;BMP280;57917;51.380;-0.176;2024-01-10T17:11:23;102391.69;;;3.41
29701;BMP280;57917;51.380;-0.176;2024-01-10T17:17:11;102394.75;;;3.44
29701;BMP280;57917;51.380;-0.176;2024-01-10T17:22:58;102395.63;;;3.22
29701;BMP280;57917;51.380;-0.176;2024-01-10T17:28:45;102408.81;;;3.29
29701;BMP280;57917;51.380;-0.176;2024-01-10T17:34:32;102407.19;;;3.13
29701;BMP280;57917;51.380;-0.176;2024-01-10T17:40:19;102407.78;;;3.01
29701;BMP280;57917;51.380;-0.176;2024-01-10T17:46:07;102415.41;;;3.10
29701;BMP280;57917;51.380;-0.176;2024-01-10T17:51:54;102424.47;;;3.00
29701;BMP280;57917;51.380;-0.176;2024-01-10T17:57:42;102441.19;;;3.13
29701;BMP280;57917;51.380;-0.176;2024-01-10T18:03:29;102447.91;;;2.93
29701;BMP280;57917;51.380;-0.176;2024-01-10T18:09:18;102445.28;;;2.93
29701;BMP280;57917;51.380;-0.176;2024-01-10T18:15:06;102456.09;;;2.90
29701;BMP280;57917;51.380;-0.176;2024-01-10T18:20:53;102461.22;;;3.06
29701;BMP280;57917;51.380;-0.176;2024-01-10T18:26:40;102458.94;;;3.03
29701;BMP280;57917;51.380;-0.176;2024-01-10T18:32:28;102477.91;;;3.05
29701;BMP280;57917;51.380;-0.176;2024-01-10T18:38:15;102479.75;;;2.97
29701;BMP280;57917;51.380;-0.176;2024-01-10T18:44:04;102488.06;;;3.00
29701;BMP280;57917;51.380;-0.176;2024-01-10T18:49:51;102499.94;;;3.11
29701;BMP280;57917;51.380;-0.176;2024-01-10T18:55:38;102501.44;;;3.05
29701;BMP280;57917;51.380;-0.176;2024-01-10T19:01:25;102501.50;;;2.97
29701;BMP280;57917;51.380;-0.176;2024-01-10T19:07:13;102506.81;;;2.89
29701;BMP280;57917;51.380;-0.176;2024-01-10T19:13:00;102511.91;;;3.05
29701;BMP280;57917;51.380;-0.176;2024-01-10T19:18:47;102512.69;;;2.91
29701;BMP280;57917;51.380;-0.176;2024-01-10T19:24:34;102515.63;;;2.88
29701;BMP280;57917;51.380;-0.176;2024-01-10T19:30:22;102523.06;;;2.99
29701;BMP280;57917;51.380;-0.176;2024-01-10T19:36:09;102524.84;;;2.99
29701;BMP280;57917;51.380;-0.176;2024-01-10T19:41:57;102534.16;;;3.01
29701;BMP280;57917;51.380;-0.176;2024-01-10T19:48:06;102529.91;;;3.00
29701;BMP280;57917;51.380;-0.176;2024-01-10T19:53:53;102546.06;;;2.89
29701;BMP280;57917;51.380;-0.176;2024-01-10T19:59:43;102546.47;;;2.93
29701;BMP280;57917;51.380;-0.176;2024-01-10T20:05:32;102556.88;;;2.78
29701;BMP280;57917;51.380;-0.176;2024-01-10T20:11:19;102560.66;;;2.98
29701;BMP280;57917;51.380;-0.176;2024-01-10T20:17:07;102561.84;;;2.96
29701;BMP280;57917;51.380;-0.176;2024-01-10T20:22:55;102568.88;;;2.95
29701;BMP280;57917;51.380;-0.176;2024-01-10T20:28:42;102573.19;;;2.88
29701;BMP280;57917;51.380;-0.176;2024-01-10T20:34:29;102578.41;;;2.88
29701;BMP280;57917;51.380;-0.176;2024-01-10T20:40:17;102570.56;;;2.88
29701;BMP280;57917;51.380;-0.176;2024-01-10T20:46:07;102582.59;;;2.97
29701;BMP280;57917;51.380;-0.176;2024-01-10T20:51:54;102580.16;;;2.96
29701;BMP280;57917;51.380;-0.176;2024-01-10T20:57:41;102600.03;;;2.82
29701;BMP280;57917;51.380;-0.176;2024-01-10T21:03:28;102604.50;;;2.96
29701;BMP280;57917;51.380;-0.176;2024-01-10T21:09:16;102606.25;;;2.81
29701;BMP280;57917;51.380;-0.176;2024-01-10T21:15:03;102596.09;;;2.86
29701;BMP280;57917;51.380;-0.176;2024-01-10T21:20:50;102613.47;;;2.71
29701;BMP280;57917;51.380;-0.176;2024-01-10T21:26:40;102614.13;;;2.73
29701;BMP280;57917;51.380;-0.176;2024-01-10T21:32:27;102614.84;;;2.59
29701;BMP280;57917;51.380;-0.176;2024-01-10T21:38:14;102630.38;;;2.52
29701;BMP280;57917;51.380;-0.176;2024-01-10T21:44:02;102647.25;;;2.50
29701;BMP280;57917;51.380;-0.176;2024-01-10T21:49:49;102637.72;;;2.57
29701;BMP280;57917;51.380;-0.176;2024-01-10T21:55:37;102651.44;;;2.59
29701;BMP280;57917;51.380;-0.176;2024-01-10T22:01:24;102665.66;;;2.65
29701;BMP280;57917;51.380;-0.176;2024-01-10T22:07:11;102675.00;;;2.51
29701;BMP280;57917;51.380;-0.176;2024-01-10T22:13:01;102687.91;;;2.36
29701;BMP280;57917;51.380;-0.176;2024-01-10T22:18:48;102689.28;;;2.24
29701;BMP280;57917;51.380;-0.176;2024-01-10T22:24:51;102698.06;;;2.23
29701;BMP280;57917;51.380;-0.176;2024-01-10T22:30:45;102693.84;;;2.14
29701;BMP280;57917;51.380;-0.176;2024-01-10T22:36:32;102707.88;;;2.21
29701;BMP280;57917;51.380;-0.176;2024-01-10T22:42:33;102721.75;;;2.06
29701;BMP280;57917;51.380;-0.176;2024-01-10T22:48:22;102716.06;;;2.18
29701;BMP280;57917;51.380;-0.176;2024-01-10T22:54:12;102722.06;;;2.11
29701;BMP280;57917;51.380;-0.176;2024-01-10T23:00:02;102742.97;;;2.11
29701;BMP280;57917;51.380;-0.176;2024-01-10T23:05:50;102742.66;;;2.14
29701;BMP280;57917;51.380;-0.176;2024-01-10T23:11:37;102757.66;;;2.28
29701;BMP280;57917;51.380;-0.176;2024-01-10T23:17:25;102767.31;;;2.60
29701;BMP280;57917;51.380;-0.176;2024-01-10T23:23:13;102773.03;;;2.31
29701;BMP280;57917;51.380;-0.176;2024-01-10T23:29:00;102770.28;;;2.16
29701;BMP280;57917;51.380;-0.176;2024-01-10T23:34:50;102761.28;;;2.11
29701;BMP280;57917;51.380;-0.176;2024-01-10T23:40:38;102769.78;;;2.21
29701;BMP280;57917;51.380;-0.176;2024-01-10T23:46:27;102766.84;;;2.16
29701;BMP280;57917;51.380;-0.176;2024-01-10T23:52:14;102774.31;;;1.95
29701;BMP280;57917;51.380;-0.176;2024-01-10T23:58:14;102775.91;;;1.80
